sensor_id;sensor_type;location;lat;lon;timestamp;P1;durP1;ratioP1;P2;durP2;ratioP2
8532;SDS011;4304;53.876;10.662;2022-10-16T00:00:16;4.85;;;3.53;;
8532;SDS011;4304;53.876;10.662;2022-10-16T00:02:41;4.35;;;3.33;;
8532;SDS011;4304;53.876;10.662;2022-10-16T00:05:07;4.25;;;3.28;;
8532;SDS011;4304;53.876;10.662;2022-10-16T00:07:32;4.22;;;3.20;;
8532;SDS011;4304;53.876;10.662;2022-10-16T00:09:57;5.05;;;3.47;;
8532;SDS011;4304;53.876;10.662;2022-10-16T00:12:23;4.88;;;3.35;;
8532;SDS011;4304;53.876;10.662;2022-10-16T00:14:49;6.05;;;3.03;;
8532;SDS011;4304;53.876;10.662;2022-10-16T00:17:14;5.07;;;3.25;;
8532;SDS011;4304;53.876;10.662;2022-10-16T00:19:39;5.10;;;2.90;;
8532;SDS011;4304;53.876;10.662;2022-10-16T00:22:04;3.95;;;3.25;;
8532;SDS011;4304;53.876;10.662;2022-10-16T00:24:30;6.13;;;3.30;;
8532;SDS011;4304;53.876;10.662;2022-10-16T00:26:56;5.13;;;3.33;;
8532;SDS011;4304;53.876;10.662;2022-10-16T00:29:21;4.20;;;2.78;;
8532;SDS011;4304;53.876;10.662;2022-10-16T00:31:46;4.13;;;2.97;;
8532;SDS011;4304;53.876;10.662;2022-10-16T00:34:11;5.47;;;3.05;;
8532;SDS011;4304;53.876;10.662;2022-10-16T00:36:36;4.00;;;2.78;;
8532;SDS011;4304;53.876;10.662;2022-10-16T00:39:02;3.55;;;2.45;;
8532;SDS011;4304;53.876;10.662;2022-10-16T00:41:27;4.63;;;2.88;;
8532;SDS011;4304;53.876;10.662;2022-10-16T00:43:55;4.88;;;2.83;;
8532;SDS011;4304;53.876;10.662;2022-10-16T00:46:28;3.88;;;2.83;;
8532;SDS011;4304;53.876;10.662;2022-10-16T00:48:57;6.45;;;2.60;;
8532;SDS011;4304;53.876;10.662;2022-10-16T00:51:28;5.05;;;2.65;;
8532;SDS011;4304;53.876;10.662;2022-10-16T00:53:57;7.00;;;3.00;;
8532;SDS011;4304;53.876;10.662;2022-10-16T00:56:22;5.15;;;2.80;;
8532;SDS011;4304;53.876;10.662;2022-10-16T00:58:48;5.57;;;3.42;;
8532;SDS011;4304;53.876;10.662;2022-10-16T01:01:13;3.97;;;2.67;;
8532;SDS011;4304;53.876;10.662;2022-10-16T01:03:38;7.05;;;2.97;;
8532;SDS011;4304;53.876;10.662;2022-10-16T01:06:13;5.57;;;3.35;;
8532;SDS011;4304;53.876;10.662;2022-10-16T01:08:48;5.80;;;3.25;;
8532;SDS011;4304;53.876;10.662;2022-10-16T01:13:59;5.50;;;3.63;;
8532;SDS011;4304;53.876;10.662;2022-10-16T01:16:35;6.05;;;3.35;;
8532;SDS011;4304;53.876;10.662;2022-10-16T01:19:09;5.47;;;3.22;;
8532;SDS011;4304;53.876;10.662;2022-10-16T01:21:44;5.18;;;3.33;;
8532;SDS011;4304;53.876;10.662;2022-10-16T01:24:17;5.07;;;3.20;;
8532;SDS011;4304;53.876;10.662;2022-10-16T01:32:39;6.15;;;3.63;;
8532;SDS011;4304;53.876;10.662;2022-10-16T01:35:11;3.85;;;2.88;;
8532;SDS011;4304;53.876;10.662;2022-10-16T01:37:43;7.78;;;3.40;;
8532;SDS011;4304;53.876;10.662;2022-10-16T01:40:19;4.93;;;3.67;;
8532;SDS011;4304;53.876;10.662;2022-10-16T01:45:30;4.82;;;3.25;;
8532;SDS011;4304;53.876;10.662;2022-10-16T01:47:57;6.57;;;3.85;;
8532;SDS011;4304;53.876;10.662;2022-10-16T01:50:25;6.38;;;3.90;;
8532;SDS011;4304;53.876;10.662;2022-10-16T01:52:52;4.80;;;3.33;;
8532;SDS011;4304;53.876;10.662;2022-10-16T01:55:22;6.18;;;3.63;;
8532;SDS011;4304;53.876;10.662;2022-10-16T01:57:53;4.63;;;3.65;;
8532;SDS011;4304;53.876;10.662;2022-10-16T02:00:20;4.47;;;3.60;;
8532;SDS011;4304;53.876;10.662;2022-10-16T02:02:47;5.45;;;3.65;;
8532;SDS011;4304;53.876;10.662;2022-10-16T02:05:17;5.55;;;3.40;;
8532;SDS011;4304;53.876;10.662;2022-10-16T02:07:47;7.80;;;3.78;;
8532;SDS011;4304;53.876;10.662;2022-10-16T02:10:13;6.47;;;3.63;;
8532;SDS011;4304;53.876;10.662;2022-10-16T02:12:39;6.50;;;3.30;;
8532;SDS011;4304;53.876;10.662;2022-10-16T02:15:08;5.10;;;2.97;;
8532;SDS011;4304;53.876;10.662;2022-10-16T02:17:33;5.50;;;3.55;;
8532;SDS011;4304;53.876;10.662;2022-10-16T02:19:59;4.35;;;3.15;;
8532;SDS011;4304;53.876;10.662;2022-10-16T02:22:27;6.63;;;2.95;;
8532;SDS011;4304;53.876;10.662;2022-10-16T02:25:05;6.88;;;2.97;;
8532;SDS011;4304;53.876;10.662;2022-10-16T02:27:45;4.80;;;3.08;;
8532;SDS011;4304;53.876;10.662;2022-10-16T02:30:36;4.72;;;2.92;;
8532;SDS011;4304;53.876;10.662;2022-10-16T02:33:07;5.00;;;2.90;;
8532;SDS011;4304;53.876;10.662;2022-10-16T02:35:36;6.47;;;2.97;;
8532;SDS011;4304;53.876;10.662;2022-10-16T02:38:02;5.03;;;2.60;;
8532;SDS011;4304;53.876;10.662;2022-10-16T02:40:28;5.00;;;2.90;;
8532;SDS011;4304;53.876;10.662;2022-10-16T02:42:54;6.05;;;2.95;;
8532;SDS011;4304;53.876;10.662;2022-10-16T02:45:20;3.83;;;2.65;;
8532;SDS011;4304;53.876;10.662;2022-10-16T02:47:45;5.20;;;3.10;;
8532;SDS011;4304;53.876;10.662;2022-10-16T02:50:12;6.07;;;2.60;;
8532;SDS011;4304;53.876;10.662;2022-10-16T02:52:37;5.25;;;2.88;;
8532;SDS011;4304;53.876;10.662;2022-10-16T02:55:02;7.18;;;2.88;;
8532;SDS011;4304;53.876;10.662;2022-10-16T02:57:28;7.35;;;2.47;;
8532;SDS011;4304;53.876;10.662;2022-10-16T02:59:53;5.53;;;2.15;;
8532;SDS011;4304;53.876;10.662;2022-10-16T03:02:18;5.53;;;2.30;;
8532;SDS011;4304;53.876;10.662;2022-10-16T03:04:44;3.78;;;2.00;;
8532;SDS011;4304;53.876;10.662;2022-10-16T03:07:09;2.08;;;1.88;;
8532;SDS011;4304;53.876;10.662;2022-10-16T03:09:34;3.28;;;2.20;;
8532;SDS011;4304;53.876;10.662;2022-10-16T03:11:59;6.45;;;2.28;;
8532;SDS011;4304;53.876;10.662;2022-10-16T03:14:24;2.67;;;1.98;;
8532;SDS011;4304;53.876;10.662;2022-10-16T03:16:50;4.60;;;2.15;;
8532;SDS011;4304;53.876;10.662;2022-10-16T03:19:18;3.03;;;2.22;;
8532;SDS011;4304;53.876;10.662;2022-10-16T03:21:43;6.63;;;1.95;;
8532;SDS011;4304;53.876;10.662;2022-10-16T03:24:09;3.90;;;2.00;;
8532;SDS011;4304;53.876;10.662;2022-10-16T03:26:34;3.72;;;2.05;;
8532;SDS011;4304;53.876;10.662;2022-10-16T03:28:59;4.00;;;2.17;;
8532;SDS011;4304;53.876;10.662;2022-10-16T03:31:24;2.10;;;1.70;;
8532;SDS011;4304;53.876;10.662;2022-10-16T03:33:50;3.83;;;2.30;;
8532;SDS011;4304;53.876;10.662;2022-10-16T03:36:15;2.97;;;2.10;;
8532;SDS011;4304;53.876;10.662;2022-10-16T03:38:40;2.38;;;1.92;;
8532;SDS011;4304;53.876;10.662;2022-10-16T03:41:06;3.60;;;2.40;;
8532;SDS011;4304;53.876;10.662;2022-10-16T03:43:31;4.60;;;1.95;;
8532;SDS011;4304;53.876;10.662;2022-10-16T03:45:56;2.97;;;1.85;;
8532;SDS011;4304;53.876;10.662;2022-10-16T03:48:21;5.53;;;1.90;;
8532;SDS011;4304;53.876;10.662;2022-10-16T03:50:46;2.22;;;1.70;;
8532;SDS011;4304;53.876;10.662;2022-10-16T03:53:15;2.80;;;1.90;;
8532;SDS011;4304;53.876;10.662;2022-10-16T03:55:43;3.05;;;1.58;;
8532;SDS011;4304;53.876;10.662;2022-10-16T03:58:09;4.95;;;2.10;;
8532;SDS011;4304;53.876;10.662;2022-10-16T04:00:35;3.70;;;1.90;;
8532;SDS011;4304;53.876;10.662;2022-10-16T04:03:00;4.35;;;1.75;;
8532;SDS011;4304;53.876;10.662;2022-10-16T04:05:26;4.13;;;1.58;;
8532;SDS011;4304;53.876;10.662;2022-10-16T04:07:51;2.70;;;2.05;;
8532;SDS011;4304;53.876;10.662;2022-10-16T04:10:16;3.80;;;1.73;;
8532;SDS011;4304;53.876;10.662;2022-10-16T04:12:42;2.47;;;1.65;;
8532;SDS011;4304;53.876;10.662;2022-10-16T04:15:07;2.38;;;1.50;;
8532;SDS011;4304;53.876;10.662;2022-10-16T04:17:33;2.38;;;1.67;;
8532;SDS011;4304;53.876;10.662;2022-10-16T04:19:58;2.83;;;1.58;;
8532;SDS011;4304;53.876;10.662;2022-10-16T04:22:25;2.55;;;1.70;;
8532;SDS011;4304;53.876;10.662;2022-10-16T04:24:50;1.58;;;1.40;;
8532;SDS011;4304;53.876;10.662;2022-10-16T04:27:15;3.28;;;1.52;;
8532;SDS011;4304;53.876;10.662;2022-10-16T04:29:41;3.85;;;1.67;;
8532;SDS011;4304;53.876;10.662;2022-10-16T04:32:07;1.58;;;1.45;;
8532;SDS011;4304;53.876;10.662;2022-10-16T04:34:33;2.67;;;1.60;;
8532;SDS011;4304;53.876;10.662;2022-10-16T04:36:58;1.95;;;1.50;;
8532;SDS011;4304;53.876;10.662;2022-10-16T04:39:24;1.95;;;1.60;;
8532;SDS011;4304;53.876;10.662;2022-10-16T04:41:49;3.15;;;1.80;;
8532;SDS011;4304;53.876;10.662;2022-10-16T04:44:14;6.70;;;1.63;;
8532;SDS011;4304;53.876;10.662;2022-10-16T04:46:39;8.63;;;1.77;;
8532;SDS011;4304;53.876;10.662;2022-10-16T04:49:05;3.35;;;1.40;;
8532;SDS011;4304;53.876;10.662;2022-10-16T04:51:30;3.45;;;1.63;;
8532;SDS011;4304;53.876;10.662;2022-10-16T04:53:55;2.65;;;1.58;;
8532;SDS011;4304;53.876;10.662;2022-10-16T04:56:21;3.58;;;1.58;;
8532;SDS011;4304;53.876;10.662;2022-10-16T04:58:46;9.25;;;1.55;;
8532;SDS011;4304;53.876;10.662;2022-10-16T05:01:12;2.45;;;1.50;;
8532;SDS011;4304;53.876;10.662;2022-10-16T05:03:37;1.35;;;1.20;;
8532;SDS011;4304;53.876;10.662;2022-10-16T05:06:04;3.15;;;1.63;;
8532;SDS011;4304;53.876;10.662;2022-10-16T05:08:33;1.60;;;1.50;;
8532;SDS011;4304;53.876;10.662;2022-10-16T05:10:58;2.38;;;1.40;;
8532;SDS011;4304;53.876;10.662;2022-10-16T05:13:23;4.18;;;1.27;;
8532;SDS011;4304;53.876;10.662;2022-10-16T05:15:49;2.38;;;1.73;;
8532;SDS011;4304;53.876;10.662;2022-10-16T05:18:15;3.35;;;1.60;;
8532;SDS011;4304;53.876;10.662;2022-10-16T05:20:41;1.70;;;1.13;;
8532;SDS011;4304;53.876;10.662;2022-10-16T05:23:06;3.58;;;1.40;;
8532;SDS011;4304;53.876;10.662;2022-10-16T05:25:32;3.15;;;1.40;;
8532;SDS011;4304;53.876;10.662;2022-10-16T05:27:57;1.73;;;1.33;;
8532;SDS011;4304;53.876;10.662;2022-10-16T05:30:22;2.13;;;1.48;;
8532;SDS011;4304;53.876;10.662;2022-10-16T05:32:48;3.13;;;1.42;;
8532;SDS011;4304;53.876;10.662;2022-10-16T05:35:15;3.35;;;1.20;;
8532;SDS011;4304;53.876;10.662;2022-10-16T05:37:41;2.25;;;1.30;;
8532;SDS011;4304;53.876;10.662;2022-10-16T05:40:07;6.03;;;1.55;;
8532;SDS011;4304;53.876;10.662;2022-10-16T05:42:33;3.28;;;1.48;;
8532;SDS011;4304;53.876;10.662;2022-10-16T05:44:58;1.73;;;1.35;;
8532;SDS011;4304;53.876;10.662;2022-10-16T05:47:23;1.90;;;1.50;;
8532;SDS011;4304;53.876;10.662;2022-10-16T05:49:48;3.85;;;1.65;;
8532;SDS011;4304;53.876;10.662;2022-10-16T05:52:13;2.47;;;1.33;;
8532;SDS011;4304;53.876;10.662;2022-10-16T05:54:39;10.35;;;1.98;;
8532;SDS011;4304;53.876;10.662;2022-10-16T05:57:04;4.47;;;1.63;;
8532;SDS011;4304;53.876;10.662;2022-10-16T05:59:29;2.47;;;1.58;;
8532;SDS011;4304;53.876;10.662;2022-10-16T06:01:54;4.00;;;1.58;;
8532;SDS011;4304;53.876;10.662;2022-10-16T06:04:19;3.67;;;1.63;;
8532;SDS011;4304;53.876;10.662;2022-10-16T06:06:45;2.35;;;1.25;;
8532;SDS011;4304;53.876;10.662;2022-10-16T06:09:10;1.80;;;1.20;;
8532;SDS011;4304;53.876;10.662;2022-10-16T06:11:35;1.30;;;1.20;;
8532;SDS011;4304;53.876;10.662;2022-10-16T06:14:01;1.67;;;1.52;;
8532;SDS011;4304;53.876;10.662;2022-10-16T06:16:26;3.45;;;1.30;;
8532;SDS011;4304;53.876;10.662;2022-10-16T06:18:52;4.75;;;1.90;;
8532;SDS011;4304;53.876;10.662;2022-10-16T06:21:20;3.17;;;1.70;;
8532;SDS011;4304;53.876;10.662;2022-10-16T06:23:47;3.25;;;1.75;;
8532;SDS011;4304;53.876;10.662;2022-10-16T06:26:13;4.78;;;1.52;;
8532;SDS011;4304;53.876;10.662;2022-10-16T06:28:40;3.78;;;1.42;;
8532;SDS011;4304;53.876;10.662;2022-10-16T06:31:07;3.60;;;1.60;;
8532;SDS011;4304;53.876;10.662;2022-10-16T06:33:34;4.15;;;1.40;;
8532;SDS011;4304;53.876;10.662;2022-10-16T06:36:01;3.95;;;1.58;;
8532;SDS011;4304;53.876;10.662;2022-10-16T06:38:28;3.30;;;1.63;;
8532;SDS011;4304;53.876;10.662;2022-10-16T06:40:54;2.38;;;1.67;;
8532;SDS011;4304;53.876;10.662;2022-10-16T06:43:19;1.38;;;1.25;;
8532;SDS011;4304;53.876;10.662;2022-10-16T06:45:50;3.08;;;1.40;;
8532;SDS011;4304;53.876;10.662;2022-10-16T06:48:16;3.95;;;1.45;;
8532;SDS011;4304;53.876;10.662;2022-10-16T06:50:41;4.95;;;1.67;;
8532;SDS011;4304;53.876;10.662;2022-10-16T06:53:07;5.30;;;1.95;;
8532;SDS011;4304;53.876;10.662;2022-10-16T06:55:32;3.40;;;1.67;;
8532;SDS011;4304;53.876;10.662;2022-10-16T06:57:57;2.28;;;1.40;;
8532;SDS011;4304;53.876;10.662;2022-10-16T07:00:22;6.78;;;1.40;;
8532;SDS011;4304;53.876;10.662;2022-10-16T07:02:47;3.45;;;1.17;;
8532;SDS011;4304;53.876;10.662;2022-10-16T07:05:14;1.27;;;1.17;;
8532;SDS011;4304;53.876;10.662;2022-10-16T07:07:39;6.03;;;1.48;;
8532;SDS011;4304;53.876;10.662;2022-10-16T07:10:04;2.65;;;1.40;;
8532;SDS011;4304;53.876;10.662;2022-10-16T07:12:29;1.58;;;1.40;;
8532;SDS011;4304;53.876;10.662;2022-10-16T07:14:55;1.90;;;1.13;;
8532;SDS011;4304;53.876;10.662;2022-10-16T07:17:20;2.58;;;1.42;;
8532;SDS011;4304;53.876;10.662;2022-10-16T07:19:45;1.92;;;1.27;;
8532;SDS011;4304;53.876;10.662;2022-10-16T07:22:11;4.10;;;1.48;;
8532;SDS011;4304;53.876;10.662;2022-10-16T07:24:38;1.73;;;1.30;;
8532;SDS011;4304;53.876;10.662;2022-10-16T07:27:06;3.00;;;1.35;;
8532;SDS011;4304;53.876;10.662;2022-10-16T07:29:31;3.75;;;1.45;;
8532;SDS011;4304;53.876;10.662;2022-10-16T07:31:57;2.92;;;1.40;;
8532;SDS011;4304;53.876;10.662;2022-10-16T07:34:22;3.17;;;1.23;;
8532;SDS011;4304;53.876;10.662;2022-10-16T07:36:48;1.77;;;1.10;;
8532;SDS011;4304;53.876;10.662;2022-10-16T07:39:14;3.00;;;1.30;;
8532;SDS011;4304;53.876;10.662;2022-10-16T07:41:39;3.45;;;1.55;;
8532;SDS011;4304;53.876;10.662;2022-10-16T07:44:04;3.85;;;1.42;;
8532;SDS011;4304;53.876;10.662;2022-10-16T07:46:30;1.70;;;1.20;;
8532;SDS011;4304;53.876;10.662;2022-10-16T07:48:55;1.75;;;1.42;;
8532;SDS011;4304;53.876;10.662;2022-10-16T07:51:21;2.70;;;1.30;;
8532;SDS011;4304;53.876;10.662;2022-10-16T07:53:48;2.17;;;1.30;;
8532;SDS011;4304;53.876;10.662;2022-10-16T07:56:14;3.88;;;1.20;;
8532;SDS011;4304;53.876;10.662;2022-10-16T07:58:40;2.75;;;1.50;;
8532;SDS011;4304;53.876;10.662;2022-10-16T08:01:06;1.77;;;1.08;;
8532;SDS011;4304;53.876;10.662;2022-10-16T08:03:33;6.70;;;1.67;;
8532;SDS011;4304;53.876;10.662;2022-10-16T08:05:59;1.70;;;1.30;;
8532;SDS011;4304;53.876;10.662;2022-10-16T08:08:25;3.17;;;1.23;;
8532;SDS011;4304;53.876;10.662;2022-10-16T08:10:51;3.05;;;1.63;;
8532;SDS011;4304;53.876;10.662;2022-10-16T08:13:16;4.97;;;1.63;;
8532;SDS011;4304;53.876;10.662;2022-10-16T08:15:42;3.70;;;1.38;;
8532;SDS011;4304;53.876;10.662;2022-10-16T08:18:08;2.08;;;1.15;;
8532;SDS011;4304;53.876;10.662;2022-10-16T08:20:34;4.28;;;1.38;;
8532;SDS011;4304;53.876;10.662;2022-10-16T08:23:00;5.25;;;1.60;;
8532;SDS011;4304;53.876;10.662;2022-10-16T08:25:26;3.25;;;1.50;;
8532;SDS011;4304;53.876;10.662;2022-10-16T08:27:51;3.75;;;1.80;;
8532;SDS011;4304;53.876;10.662;2022-10-16T08:30:17;5.07;;;1.45;;
8532;SDS011;4304;53.876;10.662;2022-10-16T08:32:47;4.25;;;1.58;;
8532;SDS011;4304;53.876;10.662;2022-10-16T08:35:13;2.88;;;1.48;;
8532;SDS011;4304;53.876;10.662;2022-10-16T08:37:38;3.00;;;1.55;;
8532;SDS011;4304;53.876;10.662;2022-10-16T08:40:05;2.17;;;1.48;;
8532;SDS011;4304;53.876;10.662;2022-10-16T08:45:32;2.38;;;1.45;;
8532;SDS011;4304;53.876;10.662;2022-10-16T08:50:54;1.92;;;1.40;;
8532;SDS011;4304;53.876;10.662;2022-10-16T08:53:27;2.33;;;1.30;;
8532;SDS011;4304;53.876;10.662;2022-10-16T08:55:56;2.10;;;1.55;;
8532;SDS011;4304;53.876;10.662;2022-10-16T08:58:22;1.58;;;1.30;;
8532;SDS011;4304;53.876;10.662;2022-10-16T09:00:55;4.00;;;1.20;;
8532;SDS011;4304;53.876;10.662;2022-10-16T09:09:01;8.85;;;1.42;;
8532;SDS011;4304;53.876;10.662;2022-10-16T09:11:43;2.50;;;1.20;;
8532;SDS011;4304;53.876;10.662;2022-10-16T09:17:13;1.20;;;1.10;;
8532;SDS011;4304;53.876;10.662;2022-10-16T09:20:16;2.08;;;1.40;;
8532;SDS011;4304;53.876;10.662;2022-10-16T09:22:47;1.45;;;1.08;;
8532;SDS011;4304;53.876;10.662;2022-10-16T09:25:17;1.55;;;1.13;;
8532;SDS011;4304;53.876;10.662;2022-10-16T09:27:45;1.60;;;1.23;;
8532;SDS011;4304;53.876;10.662;2022-10-16T09:30:14;3.47;;;1.50;;
8532;SDS011;4304;53.876;10.662;2022-10-16T09:32:42;2.53;;;1.50;;
8532;SDS011;4304;53.876;10.662;2022-10-16T09:35:11;1.77;;;1.23;;
8532;SDS011;4304;53.876;10.662;2022-10-16T09:37:39;4.43;;;1.50;;
8532;SDS011;4304;53.876;10.662;2022-10-16T09:40:26;1.75;;;1.30;;
8532;SDS011;4304;53.876;10.662;2022-10-16T09:43:41;3.97;;;1.40;;
8532;SDS011;4304;53.876;10.662;2022-10-16T09:45:53;9.57;;;1.50;;
8532;SDS011;4304;53.876;10.662;2022-10-16T09:51:23;5.80;;;1.30;;
8532;SDS011;4304;53.876;10.662;2022-10-16T09:53:58;2.83;;;1.10;;
8532;SDS011;4304;53.876;10.662;2022-10-16T09:56:26;4.32;;;1.23;;
8532;SDS011;4304;53.876;10.662;2022-10-16T09:58:54;2.28;;;0.90;;
8532;SDS011;4304;53.876;10.662;2022-10-16T10:01:24;3.85;;;1.00;;
8532;SDS011;4304;53.876;10.662;2022-10-16T10:03:55;4.90;;;1.05;;
8532;SDS011;4304;53.876;10.662;2022-10-16T10:06:23;2.88;;;1.27;;
8532;SDS011;4304;53.876;10.662;2022-10-16T10:11:39;2.75;;;1.00;;
8532;SDS011;4304;53.876;10.662;2022-10-16T10:14:16;6.50;;;1.10;;
8532;SDS011;4304;53.876;10.662;2022-10-16T10:16:48;2.10;;;1.17;;
8532;SDS011;4304;53.876;10.662;2022-10-16T10:19:14;3.28;;;1.10;;
8532;SDS011;4304;53.876;10.662;2022-10-16T10:21:41;1.10;;;1.00;;
8532;SDS011;4304;53.876;10.662;2022-10-16T10:24:09;2.75;;;1.10;;
8532;SDS011;4304;53.876;10.662;2022-10-16T10:26:35;1.63;;;0.80;;
8532;SDS011;4304;53.876;10.662;2022-10-16T10:29:04;4.03;;;1.15;;
8532;SDS011;4304;53.876;10.662;2022-10-16T10:37:47;2.20;;;1.00;;
8532;SDS011;4304;53.876;10.662;2022-10-16T10:43:09;1.00;;;0.80;;
8532;SDS011;4304;53.876;10.662;2022-10-16T10:45:46;4.72;;;1.10;;
8532;SDS011;4304;53.876;10.662;2022-10-16T10:48:16;2.13;;;1.00;;
8532;SDS011;4304;53.876;10.662;2022-10-16T10:50:49;3.13;;;0.95;;
8532;SDS011;4304;53.876;10.662;2022-10-16T10:53:18;3.35;;;1.00;;
8532;SDS011;4304;53.876;10.662;2022-10-16T10:59:09;3.33;;;0.98;;
8532;SDS011;4304;53.876;10.662;2022-10-16T11:01:58;3.80;;;1.00;;
8532;SDS011;4304;53.876;10.662;2022-10-16T11:04:34;0.80;;;0.63;;
8532;SDS011;4304;53.876;10.662;2022-10-16T11:07:24;1.77;;;0.90;;
8532;SDS011;4304;53.876;10.662;2022-10-16T11:09:55;2.20;;;0.90;;
8532;SDS011;4304;53.876;10.662;2022-10-16T11:12:26;4.68;;;1.00;;
8532;SDS011;4304;53.876;10.662;2022-10-16T11:17:50;3.40;;;1.10;;
8532;SDS011;4304;53.876;10.662;2022-10-16T11:20:28;1.38;;;0.95;;
8532;SDS011;4304;53.876;10.662;2022-10-16T11:22:58;1.13;;;0.80;;
8532;SDS011;4304;53.876;10.662;2022-10-16T11:25:28;1.85;;;1.00;;
8532;SDS011;4304;53.876;10.662;2022-10-16T11:30:52;1.25;;;0.82;;
8532;SDS011;4304;53.876;10.662;2022-10-16T11:36:03;6.82;;;1.17;;
8532;SDS011;4304;53.876;10.662;2022-10-16T11:44:12;5.55;;;1.17;;
8532;SDS011;4304;53.876;10.662;2022-10-16T11:46:53;1.60;;;0.85;;
8532;SDS011;4304;53.876;10.662;2022-10-16T11:49:26;1.33;;;0.90;;
8532;SDS011;4304;53.876;10.662;2022-10-16T11:52:00;4.47;;;0.93;;
8532;SDS011;4304;53.876;10.662;2022-10-16T11:57:24;1.35;;;0.80;;
8532;SDS011;4304;53.876;10.662;2022-10-16T12:05:40;3.15;;;1.23;;
8532;SDS011;4304;53.876;10.662;2022-10-16T12:08:33;6.15;;;1.05;;
8532;SDS011;4304;53.876;10.662;2022-10-16T12:13:50;3.60;;;0.82;;
8532;SDS011;4304;53.876;10.662;2022-10-16T12:18:42;2.57;;;0.83;;
8532;SDS011;4304;53.876;10.662;2022-10-16T12:21:09;2.13;;;1.10;;
8532;SDS011;4304;53.876;10.662;2022-10-16T12:23:45;4.32;;;1.20;;
8532;SDS011;4304;53.876;10.662;2022-10-16T12:26:23;1.65;;;1.00;;
8532;SDS011;4304;53.876;10.662;2022-10-16T12:28:52;3.00;;;0.80;;
8532;SDS011;4304;53.876;10.662;2022-10-16T12:31:18;2.33;;;0.80;;
8532;SDS011;4304;53.876;10.662;2022-10-16T12:34:01;3.47;;;1.00;;
8532;SDS011;4304;53.876;10.662;2022-10-16T12:36:33;2.15;;;0.80;;
8532;SDS011;4304;53.876;10.662;2022-10-16T12:38:59;2.90;;;0.93;;
8532;SDS011;4304;53.876;10.662;2022-10-16T12:41:27;2.20;;;0.77;;
8532;SDS011;4304;53.876;10.662;2022-10-16T12:43:57;4.20;;;0.85;;
8532;SDS011;4304;53.876;10.662;2022-10-16T12:46:33;10.70;;;0.90;;
8532;SDS011;4304;53.876;10.662;2022-10-16T12:51:39;1.27;;;0.90;;
8532;SDS011;4304;53.876;10.662;2022-10-16T13:08:11;3.25;;;0.70;;
8532;SDS011;4304;53.876;10.662;2022-10-16T13:10:40;2.28;;;0.77;;
8532;SDS011;4304;53.876;10.662;2022-10-16T13:13:19;2.80;;;1.02;;
8532;SDS011;4304;53.876;10.662;2022-10-16T13:16:29;3.95;;;1.95;;
8532;SDS011;4304;53.876;10.662;2022-10-16T13:19:18;2.72;;;1.08;;
8532;SDS011;4304;53.876;10.662;2022-10-16T13:21:55;1.50;;;0.70;;
8532;SDS011;4304;53.876;10.662;2022-10-16T13:27:15;3.58;;;1.38;;
8532;SDS011;4304;53.876;10.662;2022-10-16T13:29:54;1.80;;;1.02;;
8532;SDS011;4304;53.876;10.662;2022-10-16T13:32:33;3.20;;;1.10;;
8532;SDS011;4304;53.876;10.662;2022-10-16T13:34:58;2.38;;;1.10;;
8532;SDS011;4304;53.876;10.662;2022-10-16T13:37:24;2.50;;;0.98;;
8532;SDS011;4304;53.876;10.662;2022-10-16T13:39:49;5.53;;;1.00;;
8532;SDS011;4304;53.876;10.662;2022-10-16T13:42:16;1.33;;;0.90;;
8532;SDS011;4304;53.876;10.662;2022-10-16T13:44:48;5.70;;;0.88;;
8532;SDS011;4304;53.876;10.662;2022-10-16T13:47:16;1.45;;;1.10;;
8532;SDS011;4304;53.876;10.662;2022-10-16T13:49:46;3.20;;;0.98;;
8532;SDS011;4304;53.876;10.662;2022-10-16T13:52:23;1.40;;;0.90;;
8532;SDS011;4304;53.876;10.662;2022-10-16T13:54:48;3.67;;;1.08;;
8532;SDS011;4304;53.876;10.662;2022-10-16T13:57:16;2.25;;;0.90;;
8532;SDS011;4304;53.876;10.662;2022-10-16T13:59:42;4.50;;;1.20;;
8532;SDS011;4304;53.876;10.662;2022-10-16T14:02:30;4.28;;;0.90;;
8532;SDS011;4304;53.876;10.662;2022-10-16T14:04:56;2.78;;;0.80;;
8532;SDS011;4304;53.876;10.662;2022-10-16T14:07:26;2.15;;;0.77;;
8532;SDS011;4304;53.876;10.662;2022-10-16T14:09:54;2.45;;;0.80;;
8532;SDS011;4304;53.876;10.662;2022-10-16T14:12:19;2.10;;;0.60;;
8532;SDS011;4304;53.876;10.662;2022-10-16T14:14:47;2.90;;;0.93;;
8532;SDS011;4304;53.876;10.662;2022-10-16T14:17:19;1.77;;;0.70;;
8532;SDS011;4304;53.876;10.662;2022-10-16T14:19:49;3.70;;;1.02;;
8532;SDS011;4304;53.876;10.662;2022-10-16T14:24:56;4.97;;;0.80;;
8532;SDS011;4304;53.876;10.662;2022-10-16T14:27:30;2.38;;;0.60;;
8532;SDS011;4304;53.876;10.662;2022-10-16T14:30:17;5.03;;;0.85;;
8532;SDS011;4304;53.876;10.662;2022-10-16T14:32:58;5.72;;;0.95;;
8532;SDS011;4304;53.876;10.662;2022-10-16T14:35:32;4.15;;;0.90;;
8532;SDS011;4304;53.876;10.662;2022-10-16T14:38:02;3.75;;;0.80;;
8532;SDS011;4304;53.876;10.662;2022-10-16T14:40:30;1.98;;;0.70;;
8532;SDS011;4304;53.876;10.662;2022-10-16T14:42:57;2.08;;;0.93;;
8532;SDS011;4304;53.876;10.662;2022-10-16T14:45:24;1.45;;;0.90;;
8532;SDS011;4304;53.876;10.662;2022-10-16T14:47:54;2.00;;;0.80;;
8532;SDS011;4304;53.876;10.662;2022-10-16T14:50:22;2.97;;;0.93;;
8532;SDS011;4304;53.876;10.662;2022-10-16T14:52:48;4.05;;;0.90;;
8532;SDS011;4304;53.876;10.662;2022-10-16T14:55:13;3.20;;;1.10;;
8532;SDS011;4304;53.876;10.662;2022-10-16T14:57:39;6.35;;;1.35;;
8532;SDS011;4304;53.876;10.662;2022-10-16T15:00:15;3.75;;;1.10;;
8532;SDS011;4304;53.876;10.662;2022-10-16T15:02:45;4.75;;;0.80;;
8532;SDS011;4304;53.876;10.662;2022-10-16T15:05:21;1.50;;;0.80;;
8532;SDS011;4304;53.876;10.662;2022-10-16T15:07:48;6.35;;;1.20;;
8532;SDS011;4304;53.876;10.662;2022-10-16T15:10:13;6.10;;;1.00;;
8532;SDS011;4304;53.876;10.662;2022-10-16T15:12:39;4.03;;;1.00;;
8532;SDS011;4304;53.876;10.662;2022-10-16T15:15:26;1.63;;;1.00;;
8532;SDS011;4304;53.876;10.662;2022-10-16T15:17:58;3.03;;;0.95;;
8532;SDS011;4304;53.876;10.662;2022-10-16T15:20:24;3.00;;;0.93;;
8532;SDS011;4304;53.876;10.662;2022-10-16T15:22:53;6.28;;;1.13;;
8532;SDS011;4304;53.876;10.662;2022-10-16T15:28:14;3.95;;;0.80;;
8532;SDS011;4304;53.876;10.662;2022-10-16T15:30:41;3.30;;;0.82;;
8532;SDS011;4304;53.876;10.662;2022-10-16T15:33:14;1.85;;;0.95;;
8532;SDS011;4304;53.876;10.662;2022-10-16T15:35:41;1.60;;;0.60;;
8532;SDS011;4304;53.876;10.662;2022-10-16T15:38:18;5.50;;;1.05;;
8532;SDS011;4304;53.876;10.662;2022-10-16T15:40:46;7.68;;;1.25;;
8532;SDS011;4304;53.876;10.662;2022-10-16T15:43:12;2.35;;;0.90;;
8532;SDS011;4304;53.876;10.662;2022-10-16T15:45:37;3.50;;;0.82;;
8532;SDS011;4304;53.876;10.662;2022-10-16T15:48:03;4.18;;;0.90;;
8532;SDS011;4304;53.876;10.662;2022-10-16T15:50:29;1.70;;;0.95;;
8532;SDS011;4304;53.876;10.662;2022-10-16T15:52:55;2.90;;;0.98;;
8532;SDS011;4304;53.876;10.662;2022-10-16T15:55:20;2.83;;;1.20;;
8532;SDS011;4304;53.876;10.662;2022-10-16T15:57:45;2.63;;;1.00;;
8532;SDS011;4304;53.876;10.662;2022-10-16T16:00:12;2.50;;;1.05;;
8532;SDS011;4304;53.876;10.662;2022-10-16T16:02:39;3.95;;;1.30;;
8532;SDS011;4304;53.876;10.662;2022-10-16T16:05:05;3.00;;;1.30;;
8532;SDS011;4304;53.876;10.662;2022-10-16T16:07:34;7.60;;;1.33;;
8532;SDS011;4304;53.876;10.662;2022-10-16T16:10:03;2.50;;;1.30;;
8532;SDS011;4304;53.876;10.662;2022-10-16T16:12:31;4.93;;;1.35;;
8532;SDS011;4304;53.876;10.662;2022-10-16T16:14:57;2.85;;;1.25;;
8532;SDS011;4304;53.876;10.662;2022-10-16T16:17:22;3.65;;;1.40;;
8532;SDS011;4304;53.876;10.662;2022-10-16T16:19:47;4.30;;;2.10;;
8532;SDS011;4304;53.876;10.662;2022-10-16T16:22:13;6.60;;;2.00;;
8532;SDS011;4304;53.876;10.662;2022-10-16T16:24:38;5.20;;;2.30;;
8532;SDS011;4304;53.876;10.662;2022-10-16T16:27:03;5.82;;;2.22;;
8532;SDS011;4304;53.876;10.662;2022-10-16T16:29:29;6.93;;;2.15;;
8532;SDS011;4304;53.876;10.662;2022-10-16T16:31:54;4.40;;;1.23;;
8532;SDS011;4304;53.876;10.662;2022-10-16T16:34:19;3.88;;;1.58;;
8532;SDS011;4304;53.876;10.662;2022-10-16T16:36:44;5.72;;;1.80;;
8532;SDS011;4304;53.876;10.662;2022-10-16T16:39:10;6.78;;;2.03;;
8532;SDS011;4304;53.876;10.662;2022-10-16T16:41:35;5.25;;;2.00;;
8532;SDS011;4304;53.876;10.662;2022-10-16T16:44:01;3.35;;;1.63;;